sensor_id;sensor_type;location;lat;lon;timestamp;pressure;altitude;pressure_sealevel;temperature;humidity
10618;BME280;5356;43.526;26.534;2023-04-06T00:01:24;98792.41;;;5.25;100.00
10618;BME280;5356;43.526;26.534;2023-04-06T00:03:50;98793.06;;;5.34;100.00
10618;BME280;5356;43.526;26.534;2023-04-06T00:06:16;98781.13;;;5.38;100.00
10618;BME280;5356;43.526;26.534;2023-04-06T00:08:41;98783.13;;;5.36;100.00
10618;BME280;5356;43.526;26.534;2023-04-06T00:11:08;98781.31;;;5.43;100.00
10618;BME280;5356;43.526;26.534;2023-04-06T00:13:34;98786.00;;;5.41;100.00
10618;BME280;5356;43.526;26.534;2023-04-06T00:15:59;98781.31;;;5.36;100.00
10618;BME280;5356;43.526;26.534;2023-04-06T00:18:25;98781.69;;;5.27;100.00
10618;BME280;5356;43.526;26.534;2023-04-06T00:20:50;98777.78;;;5.23;100.00
10618;BME280;5356;43.526;26.534;2023-04-06T00:23:16;98776.56;;;5.18;100.00
10618;BME280;5356;43.526;26.534;2023-04-06T00:25:42;98772.06;;;5.19;100.00
10618;BME280;5356;43.526;26.534;2023-04-06T00:28:07;98774.09;;;5.17;100.00
10618;BME280;5356;43.526;26.534;2023-04-06T00:30:33;98766.16;;;5.17;100.00
10618;BME280;5356;43.526;26.534;2023-04-06T00:32:58;98764.59;;;5.29;100.00
10618;BME280;5356;43.526;26.534;2023-04-06T00:35:24;98753.28;;;5.35;100.00
10618;BME280;5356;43.526;26.534;2023-04-06T00:37:49;98754.28;;;5.34;100.00
10618;BME280;5356;43.526;26.534;2023-04-06T00:40:15;98756.66;;;5.23;100.00
10618;BME280;5356;43.526;26.534;2023-04-06T00:42:41;98752.22;;;5.30;100.00
10618;BME280;5356;43.526;26.534;2023-04-06T00:45:07;98752.41;;;5.22;100.00
10618;BME280;5356;43.526;26.534;2023-04-06T00:47:33;98755.88;;;5.29;100.00
10618;BME280;5356;43.526;26.534;2023-04-06T00:50:01;98751.03;;;5.39;100.00
10618;BME280;5356;43.526;26.534;2023-04-06T00:52:27;98740.09;;;5.42;100.00
10618;BME280;5356;43.526;26.534;2023-04-06T00:54:53;98739.63;;;5.32;100.00
10618;BME280;5356;43.526;26.534;2023-04-06T00:57:19;98735.38;;;5.37;100.00
10618;BME280;5356;43.526;26.534;2023-04-06T00:59:44;98744.25;;;5.23;100.00
10618;BME280;5356;43.526;26.534;2023-04-06T01:02:10;98731.81;;;5.10;100.00
10618;BME280;5356;43.526;26.534;2023-04-06T01:04:36;98735.84;;;5.06;100.00
10618;BME280;5356;43.526;26.534;2023-04-06T01:07:01;98727.72;;;5.01;100.00
10618;BME280;5356;43.526;26.534;2023-04-06T01:09:28;98733.00;;;5.01;100.00
10618;BME280;5356;43.526;26.534;2023-04-06T01:11:57;98736.59;;;4.93;100.00
10618;BME280;5356;43.526;26.534;2023-04-06T01:14:24;98728.09;;;4.98;100.00
10618;BME280;5356;43.526;26.534;2023-04-06T01:16:50;98720.94;;;4.92;100.00
10618;BME280;5356;43.526;26.534;2023-04-06T01:19:16;98720.69;;;4.80;100.00
10618;BME280;5356;43.526;26.534;2023-04-06T01:21:41;98712.50;;;4.68;100.00
10618;BME280;5356;43.526;26.534;2023-04-06T01:24:07;98714.75;;;4.71;100.00
10618;BME280;5356;43.526;26.534;2023-04-06T01:26:34;98713.72;;;4.72;100.00
10618;BME280;5356;43.526;26.534;2023-04-06T01:29:00;98711.72;;;4.75;100.00
10618;BME280;5356;43.526;26.534;2023-04-06T01:31:26;98718.06;;;4.87;100.00
10618;BME280;5356;43.526;26.534;2023-04-06T01:33:52;98722.34;;;4.81;100.00
10618;BME280;5356;43.526;26.534;2023-04-06T01:36:18;98712.13;;;4.78;100.00
10618;BME280;5356;43.526;26.534;2023-04-06T01:38:44;98703.66;;;4.83;100.00
10618;BME280;5356;43.526;26.534;2023-04-06T01:41:09;98710.88;;;4.67;100.00
10618;BME280;5356;43.526;26.534;2023-04-06T01:43:35;98701.91;;;4.62;100.00
10618;BME280;5356;43.526;26.534;2023-04-06T01:46:01;98700.09;;;4.62;100.00
10618;BME280;5356;43.526;26.534;2023-04-06T01:48:27;98697.47;;;4.69;100.00
10618;BME280;5356;43.526;26.534;2023-04-06T01:50:53;98696.75;;;4.82;100.00
10618;BME280;5356;43.526;26.534;2023-04-06T01:53:18;98689.44;;;4.84;100.00
10618;BME280;5356;43.526;26.534;2023-04-06T01:55:44;98681.13;;;4.87;100.00
10618;BME280;5356;43.526;26.534;2023-04-06T01:58:10;98680.28;;;4.80;100.00
10618;BME280;5356;43.526;26.534;2023-04-06T02:00:36;98669.09;;;4.71;100.00
10618;BME280;5356;43.526;26.534;2023-04-06T02:03:02;98672.38;;;4.80;100.00
10618;BME280;5356;43.526;26.534;2023-04-06T02:05:29;98669.56;;;4.81;100.00
10618;BME280;5356;43.526;26.534;2023-04-06T02:07:55;98667.53;;;4.83;100.00
10618;BME280;5356;43.526;26.534;2023-04-06T02:10:23;98664.69;;;4.85;100.00
10618;BME280;5356;43.526;26.534;2023-04-06T02:12:49;98664.28;;;4.81;100.00
10618;BME280;5356;43.526;26.534;2023-04-06T02:15:15;98663.44;;;4.81;100.00
10618;BME280;5356;43.526;26.534;2023-04-06T02:17:42;98666.34;;;4.92;100.00
10618;BME280;5356;43.526;26.534;2023-04-06T02:20:07;98666.13;;;4.87;100.00
10618;BME280;5356;43.526;26.534;2023-04-06T02:22:34;98659.19;;;4.80;100.00
10618;BME280;5356;43.526;26.534;2023-04-06T02:25:00;98660.59;;;4.76;100.00
10618;BME280;5356;43.526;26.534;2023-04-06T02:27:26;98663.25;;;4.76;100.00
10618;BME280;5356;43.526;26.534;2023-04-06T02:29:52;98667.03;;;4.66;100.00
10618;BME280;5356;43.526;26.534;2023-04-06T02:32:17;98670.28;;;4.68;100.00
10618;BME280;5356;43.526;26.534;2023-04-06T02:34:43;98671.06;;;4.62;100.00
10618;BME280;5356;43.526;26.534;2023-04-06T02:37:08;98668.88;;;4.72;100.00
10618;BME280;5356;43.526;26.534;2023-04-06T02:39:34;98667.50;;;4.77;100.00
10618;BME280;5356;43.526;26.534;2023-04-06T02:41:59;98669.13;;;4.78;100.00
10618;BME280;5356;43.526;26.534;2023-04-06T02:44:25;98673.56;;;4.70;100.00
10618;BME280;5356;43.526;26.534;2023-04-06T02:46:50;98665.19;;;4.67;100.00
10618;BME280;5356;43.526;26.534;2023-04-06T02:49:16;98667.41;;;4.63;100.00
10618;BME280;5356;43.526;26.534;2023-04-06T02:51:41;98664.78;;;4.63;100.00
10618;BME280;5356;43.526;26.534;2023-04-06T02:54:07;98666.78;;;4.61;100.00
10618;BME280;5356;43.526;26.534;2023-04-06T02:56:32;98662.09;;;4.57;100.00
10618;BME280;5356;43.526;26.534;2023-04-06T02:58:58;98666.78;;;4.61;100.00
10618;BME280;5356;43.526;26.534;2023-04-06T03:01:23;98665.78;;;4.62;100.00
10618;BME280;5356;43.526;26.534;2023-04-06T03:03:49;98666.19;;;4.59;100.00
10618;BME280;5356;43.526;26.534;2023-04-06T03:06:14;98665.78;;;4.62;100.00
10618;BME280;5356;43.526;26.534;2023-04-06T03:08:40;98671.50;;;4.72;100.00
10618;BME280;5356;43.526;26.534;2023-04-06T03:11:05;98670.84;;;4.64;100.00
10618;BME280;5356;43.526;26.534;2023-04-06T03:13:31;98664.16;;;4.61;100.00
10618;BME280;5356;43.526;26.534;2023-04-06T03:15:56;98664.16;;;4.61;100.00
10618;BME280;5356;43.526;26.534;2023-04-06T03:18:23;98667.06;;;4.73;100.00
10618;BME280;5356;43.526;26.534;2023-04-06T03:20:49;98663.56;;;4.66;100.00
10618;BME280;5356;43.526;26.534;2023-04-06T03:23:16;98665.66;;;4.70;100.00
10618;BME280;5356;43.526;26.534;2023-04-06T03:25:41;98666.19;;;4.59;100.00
10618;BME280;5356;43.526;26.534;2023-04-06T03:28:07;98670.69;;;4.65;100.00
10618;BME280;5356;43.526;26.534;2023-04-06T03:30:33;98661.31;;;4.63;100.00
10618;BME280;5356;43.526;26.534;2023-04-06T03:32:58;98654.84;;;4.65;100.00
10618;BME280;5356;43.526;26.534;2023-04-06T03:35:24;98668.66;;;4.67;100.00
10618;BME280;5356;43.526;26.534;2023-04-06T03:37:50;98658.50;;;4.64;100.00
10618;BME280;5356;43.526;26.534;2023-04-06T03:40:15;98659.75;;;4.68;100.00
10618;BME280;5356;43.526;26.534;2023-04-06T03:42:41;98660.28;;;4.57;100.00
10618;BME280;5356;43.526;26.534;2023-04-06T03:45:07;98657.16;;;4.47;100.00
10618;BME280;5356;43.526;26.534;2023-04-06T03:47:33;98653.38;;;4.56;100.00
10618;BME280;5356;43.526;26.534;2023-04-06T03:49:58;98659.88;;;4.54;100.00
10618;BME280;5356;43.526;26.534;2023-04-06T03:52:24;98659.41;;;4.50;100.00
10618;BME280;5356;43.526;26.534;2023-04-06T03:54:50;98652.84;;;4.67;100.00
10618;BME280;5356;43.526;26.534;2023-04-06T03:57:15;98657.63;;;4.50;100.00
10618;BME280;5356;43.526;26.534;2023-04-06T03:59:41;98648.84;;;4.50;100.00
10618;BME280;5356;43.526;26.534;2023-04-06T04:02:06;98656.63;;;4.58;100.00
10618;BME280;5356;43.526;26.534;2023-04-06T04:04:32;98661.50;;;4.61;100.00
10618;BME280;5356;43.526;26.534;2023-04-06T04:06:57;98658.03;;;4.54;100.00
10618;BME280;5356;43.526;26.534;2023-04-06T04:09:23;98662.75;;;4.65;100.00
10618;BME280;5356;43.526;26.534;2023-04-06T04:11:48;98659.50;;;4.63;100.00
10618;BME280;5356;43.526;26.534;2023-04-06T04:14:14;98657.66;;;4.64;100.00
10618;BME280;5356;43.526;26.534;2023-04-06T04:16:40;98650.34;;;4.59;100.00
10618;BME280;5356;43.526;26.534;2023-04-06T04:19:07;98653.22;;;4.64;100.00
10618;BME280;5356;43.526;26.534;2023-04-06T04:21:32;98659.75;;;4.75;100.00
10618;BME280;5356;43.526;26.534;2023-04-06T04:23:58;98668.13;;;4.79;100.00
10618;BME280;5356;43.526;26.534;2023-04-06T04:26:23;98660.22;;;4.79;100.00
10618;BME280;5356;43.526;26.534;2023-04-06T04:28:48;98665.09;;;4.82;100.00
10618;BME280;5356;43.526;26.534;2023-04-06T04:31:14;98665.09;;;4.82;100.00
10618;BME280;5356;43.526;26.534;2023-04-06T04:33:40;98670.13;;;4.77;100.00
10618;BME280;5356;43.526;26.534;2023-04-06T04:36:06;98667.53;;;4.83;100.00
10618;BME280;5356;43.526;26.534;2023-04-06T04:38:31;98666.38;;;4.99;100.00
10618;BME280;5356;43.526;26.534;2023-04-06T04:40:57;98658.53;;;5.19;100.00
10618;BME280;5356;43.526;26.534;2023-04-06T04:43:22;98664.88;;;5.25;100.00
10618;BME280;5356;43.526;26.534;2023-04-06T04:45:48;98672.97;;;5.16;100.00
10618;BME280;5356;43.526;26.534;2023-04-06T04:48:13;98672.72;;;5.11;100.00
10618;BME280;5356;43.526;26.534;2023-04-06T04:50:39;98662.38;;;5.10;100.00
10618;BME280;5356;43.526;26.534;2023-04-06T04:53:04;98670.88;;;5.05;100.00
10618;BME280;5356;43.526;26.534;2023-04-06T04:55:32;98670.88;;;5.05;100.00
10618;BME280;5356;43.526;26.534;2023-04-06T04:57:58;98663.59;;;5.07;100.00
10618;BME280;5356;43.526;26.534;2023-04-06T05:00:24;98667.84;;;5.08;100.00
10618;BME280;5356;43.526;26.534;2023-04-06T05:02:49;98665.63;;;5.12;100.00
10618;BME280;5356;43.526;26.534;2023-04-06T05:05:15;98664.84;;;5.18;100.00
10618;BME280;5356;43.526;26.534;2023-04-06T05:07:40;98666.88;;;5.29;100.00
10618;BME280;5356;43.526;26.534;2023-04-06T05:10:06;98656.38;;;5.36;100.00
10618;BME280;5356;43.526;26.534;2023-04-06T05:12:32;98663.09;;;5.45;100.00
10618;BME280;5356;43.526;26.534;2023-04-06T05:14:58;98661.66;;;5.43;100.00
10618;BME280;5356;43.526;26.534;2023-04-06T05:17:23;98672.56;;;5.26;100.00
10618;BME280;5356;43.526;26.534;2023-04-06T05:19:49;98666.09;;;5.29;100.00
10618;BME280;5356;43.526;26.534;2023-04-06T05:22:14;98660.63;;;5.30;100.00
10618;BME280;5356;43.526;26.534;2023-04-06T05:24:43;98667.28;;;5.26;100.00
10618;BME280;5356;43.526;26.534;2023-04-06T05:27:11;98670.16;;;5.25;100.00
10618;BME280;5356;43.526;26.534;2023-04-06T05:29:39;98674.41;;;5.26;100.00
10618;BME280;5356;43.526;26.534;2023-04-06T05:32:05;98666.47;;;5.26;100.00
10618;BME280;5356;43.526;26.534;2023-04-06T05:34:31;98663.31;;;5.50;100.00
10618;BME280;5356;43.526;26.534;2023-04-06T05:36:56;98664.13;;;5.44;100.00
10618;BME280;5356;43.526;26.534;2023-04-06T05:39:22;98665.72;;;5.38;100.00
10618;BME280;5356;43.526;26.534;2023-04-06T05:41:48;98666.53;;;5.39;100.00
10618;BME280;5356;43.526;26.534;2023-04-06T05:44:14;98657.63;;;5.47;100.00
10618;BME280;5356;43.526;26.534;2023-04-06T05:46:40;98663.31;;;5.50;100.00
10618;BME280;5356;43.526;26.534;2023-04-06T05:49:05;98662.09;;;5.59;100.00
10618;BME280;5356;43.526;26.534;2023-04-06T05:51:31;98654.41;;;5.71;100.00
10618;BME280;5356;43.526;26.534;2023-04-06T05:53:56;98651.97;;;5.70;100.00
10618;BME280;5356;43.526;26.534;2023-04-06T05:56:23;98651.75;;;5.65;100.00
10618;BME280;5356;43.526;26.534;2023-04-06T05:58:48;98651.94;;;5.56;100.00
10618;BME280;5356;43.526;26.534;2023-04-06T06:01:14;98643.19;;;5.49;100.00
10618;BME280;5356;43.526;26.534;2023-04-06T06:03:40;98646.03;;;5.54;100.00
10618;BME280;5356;43.526;26.534;2023-04-06T06:06:06;98649.91;;;5.58;100.00
10618;BME280;5356;43.526;26.534;2023-04-06T06:08:32;98652.56;;;5.58;100.00
10618;BME280;5356;43.526;26.534;2023-04-06T06:10:57;98655.16;;;5.45;100.00
10618;BME280;5356;43.526;26.534;2023-04-06T06:13:23;98649.88;;;5.45;100.00
10618;BME280;5356;43.526;26.534;2023-04-06T06:15:49;98652.13;;;5.48;100.00
10618;BME280;5356;43.526;26.534;2023-04-06T06:18:15;98641.97;;;5.52;100.00
10618;BME280;5356;43.526;26.534;2023-04-06T06:20:41;98646.47;;;5.65;100.00
10618;BME280;5356;43.526;26.534;2023-04-06T06:23:07;98646.69;;;5.70;100.00
10618;BME280;5356;43.526;26.534;2023-04-06T06:25:32;98652.38;;;5.73;100.00
10618;BME280;5356;43.526;26.534;2023-04-06T06:27:58;98654.22;;;5.73;100.00
10618;BME280;5356;43.526;26.534;2023-04-06T06:30:24;98656.00;;;5.59;100.00
10618;BME280;5356;43.526;26.534;2023-04-06T06:32:50;98654.53;;;5.43;100.00
10618;BME280;5356;43.526;26.534;2023-04-06T06:35:22;98650.91;;;5.44;100.00
10618;BME280;5356;43.526;26.534;2023-04-06T06:37:48;98652.75;;;5.50;100.00
10618;BME280;5356;43.526;26.534;2023-04-06T06:40:13;98650.72;;;5.52;100.00
10618;BME280;5356;43.526;26.534;2023-04-06T06:42:41;98649.28;;;5.50;100.00
10618;BME280;5356;43.526;26.534;2023-04-06T06:45:12;98652.34;;;5.47;100.00
10618;BME280;5356;43.526;26.534;2023-04-06T06:47:38;98647.66;;;5.49;100.00
10618;BME280;5356;43.526;26.534;2023-04-06T06:50:03;98650.91;;;5.51;100.00
10618;BME280;5356;43.526;26.534;2023-04-06T06:52:29;98651.13;;;5.49;100.00
10618;BME280;5356;43.526;26.534;2023-04-06T06:54:55;98647.47;;;5.57;100.00
10618;BME280;5356;43.526;26.534;2023-04-06T06:57:21;98648.47;;;5.49;100.00
10618;BME280;5356;43.526;26.534;2023-04-06T06:59:47;98655.19;;;5.58;100.00
10618;BME280;5356;43.526;26.534;2023-04-06T07:02:12;98653.19;;;5.60;100.00
10618;BME280;5356;43.526;26.534;2023-04-06T07:04:38;98648.28;;;5.57;100.00
10618;BME280;5356;43.526;26.534;2023-04-06T07:07:03;98653.72;;;5.43;100.00
10618;BME280;5356;43.526;26.534;2023-04-06T07:09:29;98655.78;;;5.47;100.00
10618;BME280;5356;43.526;26.534;2023-04-06T07:11:54;98645.00;;;5.42;100.00
10618;BME280;5356;43.526;26.534;2023-04-06T07:14:21;98643.78;;;5.51;100.00
10618;BME280;5356;43.526;26.534;2023-04-06T07:16:47;98648.09;;;5.59;100.00
10618;BME280;5356;43.526;26.534;2023-04-06T07:19:15;98655.81;;;5.74;100.00
10618;BME280;5356;43.526;26.534;2023-04-06T07:21:40;98647.91;;;5.74;100.00
10618;BME280;5356;43.526;26.534;2023-04-06T07:24:06;98656.63;;;5.68;100.00
10618;BME280;5356;43.526;26.534;2023-04-06T07:26:32;98648.50;;;5.76;100.00
10618;BME280;5356;43.526;26.534;2023-04-06T07:28:57;98650.72;;;5.66;100.00
10618;BME280;5356;43.526;26.534;2023-04-06T07:31:23;98644.25;;;5.75;100.00
10618;BME280;5356;43.526;26.534;2023-04-06T07:33:48;98655.22;;;5.78;100.00
10618;BME280;5356;43.526;26.534;2023-04-06T07:36:15;98653.00;;;5.82;100.00
10618;BME280;5356;43.526;26.534;2023-04-06T07:38:40;98650.56;;;5.87;100.00
10618;BME280;5356;43.526;26.534;2023-04-06T07:41:06;98656.06;;;5.92;100.00
10618;BME280;5356;43.526;26.534;2023-04-06T07:43:31;98659.94;;;5.96;100.00
10618;BME280;5356;43.526;26.534;2023-04-06T07:45:57;98660.53;;;5.92;100.00
10618;BME280;5356;43.526;26.534;2023-04-06T07:48:24;98664.63;;;6.01;100.00
10618;BME280;5356;43.526;26.534;2023-04-06T07:50:50;98663.81;;;6.07;100.00
10618;BME280;5356;43.526;26.534;2023-04-06T07:53:15;98674.38;;;6.14;100.00
10618;BME280;5356;43.526;26.534;2023-04-06T07:55:41;98662.59;;;5.96;100.00
10618;BME280;5356;43.526;26.534;2023-04-06T07:58:06;98666.25;;;6.08;100.00
10618;BME280;5356;43.526;26.534;2023-04-06T08:00:32;98654.84;;;6.08;100.00
10618;BME280;5356;43.526;26.534;2023-04-06T08:03:03;98663.00;;;6.20;100.00
10618;BME280;5356;43.526;26.534;2023-04-06T08:05:29;98663.81;;;6.14;100.00
10618;BME280;5356;43.526;26.534;2023-04-06T08:07:58;98666.44;;;6.27;100.00
10618;BME280;5356;43.526;26.534;2023-04-06T08:10:24;98671.94;;;6.25;100.00
10618;BME280;5356;43.526;26.534;2023-04-06T08:12:49;98665.22;;;6.36;100.00
10618;BME280;5356;43.526;26.534;2023-04-06T08:15:15;98662.97;;;6.46;100.00
10618;BME280;5356;43.526;26.534;2023-04-06T08:17:40;98656.28;;;6.37;100.00
10618;BME280;5356;43.526;26.534;2023-04-06T08:20:06;98661.34;;;6.45;100.00
10618;BME280;5356;43.526;26.534;2023-04-06T08:22:35;98660.91;;;6.62;100.00
10618;BME280;5356;43.526;26.534;2023-04-06T08:25:00;98660.06;;;6.68;100.00
10618;BME280;5356;43.526;26.534;2023-04-06T08:27:26;98663.94;;;6.72;100.00
10618;BME280;5356;43.526;26.534;2023-04-06T08:29:54;98659.25;;;6.74;100.00
10618;BME280;5356;43.526;26.534;2023-04-06T08:32:20;98660.47;;;6.78;100.00
10618;BME280;5356;43.526;26.534;2023-04-06T08:34:46;98653.56;;;6.70;100.00
10618;BME280;5356;43.526;26.534;2023-04-06T08:37:12;98667.78;;;6.76;100.00
10618;BME280;5356;43.526;26.534;2023-04-06T08:39:37;98670.03;;;6.86;100.00
10618;BME280;5356;43.526;26.534;2023-04-06T08:42:03;98671.44;;;6.82;100.00
10618;BME280;5356;43.526;26.534;2023-04-06T08:44:29;98663.09;;;6.85;100.00
10618;BME280;5356;43.526;26.534;2023-04-06T08:47:12;98654.91;;;6.93;100.00
10618;BME280;5356;43.526;26.534;2023-04-06T08:49:38;98659.03;;;6.82;100.00
10618;BME280;5356;43.526;26.534;2023-04-06T08:52:07;98658.22;;;6.88;100.00
10618;BME280;5356;43.526;26.534;2023-04-06T08:54:34;98667.78;;;6.83;100.00
10618;BME280;5356;43.526;26.534;2023-04-06T08:57:00;98661.44;;;6.90;100.00
10618;BME280;5356;43.526;26.534;2023-04-06T08:59:42;98656.56;;;6.94;100.00
10618;BME280;5356;43.526;26.534;2023-04-06T09:05:38;98654.16;;;7.24;100.00
10618;BME280;5356;43.526;26.534;2023-04-06T09:08:47;98648.81;;;7.37;100.00
10618;BME280;5356;43.526;26.534;2023-04-06T09:15:57;98656.53;;;7.46;100.00
10618;BME280;5356;43.526;26.534;2023-04-06T09:18:35;98645.06;;;7.52;100.00
10618;BME280;5356;43.526;26.534;2023-04-06T09:22:01;98653.19;;;7.57;100.00
10618;BME280;5356;43.526;26.534;2023-04-06T09:25:39;98645.84;;;7.59;99.36
10618;BME280;5356;43.526;26.534;2023-04-06T09:31:24;98650.69;;;7.69;96.96
10618;BME280;5356;43.526;26.534;2023-04-06T09:34:07;98644.34;;;7.95;97.78
10618;BME280;5356;43.526;26.534;2023-04-06T09:37:31;98645.88;;;8.09;97.46
10618;BME280;5356;43.526;26.534;2023-04-06T09:47:48;98645.66;;;8.36;94.26
10618;BME280;5356;43.526;26.534;2023-04-06T09:50:58;98640.78;;;8.32;93.09
10618;BME280;5356;43.526;26.534;2023-04-06T09:54:08;98633.81;;;8.38;93.09
10618;BME280;5356;43.526;26.534;2023-04-06T10:10:40;98649.69;;;8.63;89.41
10618;BME280;5356;43.526;26.534;2023-04-06T10:27:32;98640.84;;;8.88;85.37
10618;BME280;5356;43.526;26.534;2023-04-06T10:37:20;98640.78;;;9.13;86.91
10618;BME280;5356;43.526;26.534;2023-04-06T10:44:25;98640.41;;;9.09;82.45
10618;BME280;5356;43.526;26.534;2023-04-06T10:47:23;98630.69;;;9.03;82.23
10618;BME280;5356;43.526;26.534;2023-04-06T11:28:52;98610.53;;;9.56;76.71
10618;BME280;5356;43.526;26.534;2023-04-06T13:01:53;98568.31;;;12.13;58.75
10618;BME280;5356;43.526;26.534;2023-04-06T13:05:01;98569.31;;;11.90;58.96
10618;BME280;5356;43.526;26.534;2023-04-06T14:39:18;98527.91;;;11.09;58.68
10618;BME280;5356;43.526;26.534;2023-04-06T14:42:24;98532.38;;;11.20;58.98
10618;BME280;5356;43.526;26.534;2023-04-06T14:52:35;98535.84;;;10.92;58.84
10618;BME280;5356;43.526;26.534;2023-04-06T15:04:44;98538.56;;;10.80;59.65
10618;BME280;5356;43.526;26.534;2023-04-06T15:07:15;98539.03;;;10.77;59.92
10618;BME280;5356;43.526;26.534;2023-04-06T15:31:01;98549.00;;;10.82;62.90
10618;BME280;5356;43.526;26.534;2023-04-06T15:34:18;98556.41;;;10.79;63.95
10618;BME280;5356;43.526;26.534;2023-04-06T15:47:51;98546.03;;;10.54;63.98
10618;BME280;5356;43.526;26.534;2023-04-06T16:43:15;98587.38;;;10.57;65.93
10618;BME280;5356;43.526;26.534;2023-04-06T17:09:38;98616.75;;;10.03;60.18
10618;BME280;5356;43.526;26.534;2023-04-06T17:15:54;98619.53;;;10.08;60.59
10618;BME280;5356;43.526;26.534;2023-04-06T17:19:16;98626.72;;;10.08;60.07
10618;BME280;5356;43.526;26.534;2023-04-06T17:38:52;98656.94;;;10.14;62.40
10618;BME280;5356;43.526;26.534;2023-04-06T17:41:47;98662.59;;;10.17;61.88
10618;BME280;5356;43.526;26.534;2023-04-06T17:45:11;98665.72;;;10.02;62.03
10618;BME280;5356;43.526;26.534;2023-04-06T17:48:03;98668.00;;;10.10;61.95
10618;BME280;5356;43.526;26.534;2023-04-06T17:50:31;98669.88;;;10.10;61.94
10618;BME280;5356;43.526;26.534;2023-04-06T17:52:57;98678.53;;;9.94;61.47
10618;BME280;5356;43.526;26.534;2023-04-06T17:55:22;98680.50;;;9.98;61.63
10618;BME280;5356;43.526;26.534;2023-04-06T17:57:49;98673.31;;;9.99;61.85
10618;BME280;5356;43.526;26.534;2023-04-06T18:00:16;98680.34;;;9.93;61.49
10618;BME280;5356;43.526;26.534;2023-04-06T18:03:13;98682.34;;;9.98;61.40
10618;BME280;5356;43.526;26.534;2023-04-06T18:05:42;98696.59;;;10.15;63.76
10618;BME280;5356;43.526;26.534;2023-04-06T18:08:51;98701.00;;;10.21;63.78
10618;BME280;5356;43.526;26.534;2023-04-06T18:15:10;98708.97;;;10.09;64.05
10618;BME280;5356;43.526;26.534;2023-04-06T18:18:03;98714.75;;;10.06;63.95
10618;BME280;5356;43.526;26.534;2023-04-06T18:27:31;98731.69;;;9.82;64.91
10618;BME280;5356;43.526;26.534;2023-04-06T18:33:48;98738.09;;;9.62;63.13
10618;BME280;5356;43.526;26.534;2023-04-06T18:36:59;98738.00;;;9.51;61.92
10618;BME280;5356;43.526;26.534;2023-04-06T18:40:49;98744.69;;;9.41;61.35
10618;BME280;5356;43.526;26.534;2023-04-06T18:43:09;98741.88;;;9.36;61.27
10618;BME280;5356;43.526;26.534;2023-04-06T18:45:53;98753.25;;;9.25;60.76
10618;BME280;5356;43.526;26.534;2023-04-06T18:48:40;98751.47;;;9.19;61.55
10618;BME280;5356;43.526;26.534;2023-04-06T18:51:38;98743.75;;;9.17;60.75
10618;BME280;5356;43.526;26.534;2023-04-06T18:54:20;98754.22;;;9.12;61.47
10618;BME280;5356;43.526;26.534;2023-04-06T18:56:52;98752.56;;;9.11;61.43
10618;BME280;5356;43.526;26.534;2023-04-06T18:59:21;98759.38;;;9.07;61.83
10618;BME280;5356;43.526;26.534;2023-04-06T19:02:07;98754.88;;;9.08;62.29
10618;BME280;5356;43.526;26.534;2023-04-06T19:04:59;98760.03;;;9.03;61.94
10618;BME280;5356;43.526;26.534;2023-04-06T19:07:27;98768.31;;;9.13;62.63
10618;BME280;5356;43.526;26.534;2023-04-06T19:13:22;98769.72;;;9.15;62.22
10618;BME280;5356;43.526;26.534;2023-04-06T19:16:15;98770.75;;;9.14;61.36
10618;BME280;5356;43.526;26.534;2023-04-06T19:19:09;98772.94;;;8.99;60.20
10618;BME280;5356;43.526;26.534;2023-04-06T19:21:44;98775.44;;;8.94;60.93
10618;BME280;5356;43.526;26.534;2023-04-06T19:24:25;98775.88;;;8.91;59.69
10618;BME280;5356;43.526;26.534;2023-04-06T19:27:01;98780.00;;;8.87;60.78
10618;BME280;5356;43.526;26.534;2023-04-06T19:29:40;98775.78;;;8.79;60.54
10618;BME280;5356;43.526;26.534;2023-04-06T19:32:23;98774.47;;;8.88;61.09
10618;BME280;5356;43.526;26.534;2023-04-06T19:38:30;98780.44;;;8.84;61.23
10618;BME280;5356;43.526;26.534;2023-04-06T19:40:57;98790.63;;;8.87;61.88
10618;BME280;5356;43.526;26.534;2023-04-06T19:43:29;98795.72;;;8.88;61.86
10618;BME280;5356;43.526;26.534;2023-04-06T19:46:23;98805.09;;;8.91;62.52
10618;BME280;5356;43.526;26.534;2023-04-06T19:52:36;98803.66;;;8.95;62.39
10618;BME280;5356;43.526;26.534;2023-04-06T19:55:32;98811.63;;;8.95;61.72
10618;BME280;5356;43.526;26.534;2023-04-06T19:58:12;98810.78;;;8.94;62.63
10618;BME280;5356;43.526;26.534;2023-04-06T20:00:48;98809.41;;;8.92;63.09
10618;BME280;5356;43.526;26.534;2023-04-06T20:03:32;98810.69;;;8.83;63.23
10618;BME280;5356;43.526;26.534;2023-04-06T20:09:12;98812.63;;;8.69;63.59
10618;BME280;5356;43.526;26.534;2023-04-06T20:15:39;98820.72;;;8.56;64.37
10618;BME280;5356;43.526;26.534;2023-04-06T20:27:55;98826.38;;;8.27;63.15
10618;BME280;5356;43.526;26.534;2023-04-06T20:31:00;98829.88;;;8.21;62.60
10618;BME280;5356;43.526;26.534;2023-04-06T20:33:38;98824.97;;;8.25;63.04
10618;BME280;5356;43.526;26.534;2023-04-06T20:36:38;98833.72;;;8.25;63.48
10618;BME280;5356;43.526;26.534;2023-04-06T20:39:04;98833.97;;;8.24;63.51
10618;BME280;5356;43.526;26.534;2023-04-06T20:41:47;98833.97;;;8.17;63.83
10618;BME280;5356;43.526;26.534;2023-04-06T20:44:39;98837.41;;;8.24;63.62
10618;BME280;5356;43.526;26.534;2023-04-06T20:47:28;98839.28;;;8.17;63.14
10618;BME280;5356;43.526;26.534;2023-04-06T20:50:12;98828.91;;;8.16;63.41
10618;BME280;5356;43.526;26.534;2023-04-06T20:52:49;98843.72;;;8.23;63.35
10618;BME280;5356;43.526;26.534;2023-04-06T20:55:45;98835.22;;;8.15;63.15
10618;BME280;5356;43.526;26.534;2023-04-06T21:04:49;98846.19;;;8.25;63.36
10618;BME280;5356;43.526;26.534;2023-04-06T21:07:36;98855.19;;;8.17;61.92
10618;BME280;5356;43.526;26.534;2023-04-06T21:10:18;98844.69;;;8.04;61.20
10618;BME280;5356;43.526;26.534;2023-04-06T21:12:59;98843.03;;;8.03;61.46
10618;BME280;5356;43.526;26.534;2023-04-06T21:19:37;98845.72;;;7.96;61.38
10618;BME280;5356;43.526;26.534;2023-04-06T21:22:21;98850.03;;;7.91;62.08
10618;BME280;5356;43.526;26.534;2023-04-06T21:25:25;98849.22;;;7.90;61.91